sensor_id;sensor_type;location;lat;lon;timestamp;temperature;humidity
9776;DHT22;4927;52.472;13.108;2022-11-14T00:04:17;6.10;99.90
9776;DHT22;4927;52.472;13.108;2022-11-14T00:09:24;6.00;99.90
9776;DHT22;4927;52.472;13.108;2022-11-14T00:14:30;6.00;99.90
9776;DHT22;4927;52.472;13.108;2022-11-14T00:19:37;5.90;99.90
9776;DHT22;4927;52.472;13.108;2022-11-14T00:24:43;5.90;99.90
9776;DHT22;4927;52.472;13.108;2022-11-14T00:29:49;5.90;99.90
9776;DHT22;4927;52.472;13.108;2022-11-14T00:34:55;5.90;99.90
9776;DHT22;4927;52.472;13.108;2022-11-14T00:40:03;5.80;99.90
9776;DHT22;4927;52.472;13.108;2022-11-14T00:45:10;5.80;99.90
9776;DHT22;4927;52.472;13.108;2022-11-14T00:50:17;5.80;99.90
9776;DHT22;4927;52.472;13.108;2022-11-14T00:55:23;5.80;99.90
9776;DHT22;4927;52.472;13.108;2022-11-14T01:00:29;5.80;99.90
9776;DHT22;4927;52.472;13.108;2022-11-14T01:05:40;5.80;99.90
9776;DHT22;4927;52.472;13.108;2022-11-14T01:10:45;5.80;99.90
9776;DHT22;4927;52.472;13.108;2022-11-14T01:15:50;5.70;99.90
9776;DHT22;4927;52.472;13.108;2022-11-14T01:20:54;5.80;99.90
9776;DHT22;4927;52.472;13.108;2022-11-14T01:26:06;5.60;99.90
9776;DHT22;4927;52.472;13.108;2022-11-14T01:31:14;5.70;99.90
9776;DHT22;4927;52.472;13.108;2022-11-14T01:36:18;5.70;99.90
9776;DHT22;4927;52.472;13.108;2022-11-14T01:41:25;5.60;99.90
9776;DHT22;4927;52.472;13.108;2022-11-14T01:46:34;5.60;99.90
9776;DHT22;4927;52.472;13.108;2022-11-14T01:51:41;5.60;99.90
9776;DHT22;4927;52.472;13.108;2022-11-14T01:56:53;5.60;99.90
9776;DHT22;4927;52.472;13.108;2022-11-14T02:01:51;5.50;99.90
9776;DHT22;4927;52.472;13.108;2022-11-14T02:06:58;5.50;99.90
9776;DHT22;4927;52.472;13.108;2022-11-14T02:12:05;5.60;99.90
9776;DHT22;4927;52.472;13.108;2022-11-14T02:17:11;5.60;99.90
9776;DHT22;4927;52.472;13.108;2022-11-14T02:22:16;5.50;99.90
9776;DHT22;4927;52.472;13.108;2022-11-14T02:27:23;5.50;99.90
9776;DHT22;4927;52.472;13.108;2022-11-14T02:32:29;5.60;99.90
9776;DHT22;4927;52.472;13.108;2022-11-14T02:37:35;5.70;99.90
9776;DHT22;4927;52.472;13.108;2022-11-14T02:42:41;5.80;99.90
9776;DHT22;4927;52.472;13.108;2022-11-14T02:47:48;5.80;99.90
9776;DHT22;4927;52.472;13.108;2022-11-14T02:52:54;5.90;99.90
9776;DHT22;4927;52.472;13.108;2022-11-14T02:58:01;6.00;99.90
9776;DHT22;4927;52.472;13.108;2022-11-14T03:03:14;6.00;99.90
9776;DHT22;4927;52.472;13.108;2022-11-14T03:08:20;6.00;99.90
9776;DHT22;4927;52.472;13.108;2022-11-14T03:13:28;6.00;99.90
9776;DHT22;4927;52.472;13.108;2022-11-14T03:18:35;6.10;99.90
9776;DHT22;4927;52.472;13.108;2022-11-14T03:23:41;6.10;99.90
9776;DHT22;4927;52.472;13.108;2022-11-14T03:28:47;6.10;99.90
9776;DHT22;4927;52.472;13.108;2022-11-14T03:33:54;6.10;99.90
9776;DHT22;4927;52.472;13.108;2022-11-14T03:39:00;6.10;99.90
9776;DHT22;4927;52.472;13.108;2022-11-14T03:44:06;6.10;99.90
9776;DHT22;4927;52.472;13.108;2022-11-14T03:49:12;6.10;99.90
9776;DHT22;4927;52.472;13.108;2022-11-14T03:54:19;6.20;99.90
9776;DHT22;4927;52.472;13.108;2022-11-14T03:59:25;6.20;99.90
9776;DHT22;4927;52.472;13.108;2022-11-14T04:04:31;6.10;99.90
9776;DHT22;4927;52.472;13.108;2022-11-14T04:09:38;6.10;99.90
9776;DHT22;4927;52.472;13.108;2022-11-14T04:14:44;6.10;99.90
9776;DHT22;4927;52.472;13.108;2022-11-14T04:19:50;6.10;99.90
9776;DHT22;4927;52.472;13.108;2022-11-14T04:24:56;6.10;99.90
9776;DHT22;4927;52.472;13.108;2022-11-14T04:30:04;6.10;99.90
9776;DHT22;4927;52.472;13.108;2022-11-14T04:35:08;6.00;99.90
9776;DHT22;4927;52.472;13.108;2022-11-14T04:40:14;6.00;99.90
9776;DHT22;4927;52.472;13.108;2022-11-14T04:45:21;6.00;99.90
9776;DHT22;4927;52.472;13.108;2022-11-14T04:50:27;6.00;99.90
9776;DHT22;4927;52.472;13.108;2022-11-14T04:55:33;6.00;99.90
9776;DHT22;4927;52.472;13.108;2022-11-14T05:00:40;5.90;99.90
9776;DHT22;4927;52.472;13.108;2022-11-14T05:05:46;5.90;99.90
9776;DHT22;4927;52.472;13.108;2022-11-14T05:10:52;5.90;99.90
9776;DHT22;4927;52.472;13.108;2022-11-14T05:15:59;5.90;99.90
9776;DHT22;4927;52.472;13.108;2022-11-14T05:21:05;6.00;99.90
9776;DHT22;4927;52.472;13.108;2022-11-14T05:26:13;5.90;99.90
9776;DHT22;4927;52.472;13.108;2022-11-14T05:31:17;5.70;99.90
9776;DHT22;4927;52.472;13.108;2022-11-14T05:36:24;5.80;99.90
9776;DHT22;4927;52.472;13.108;2022-11-14T05:41:30;5.80;99.90
9776;DHT22;4927;52.472;13.108;2022-11-14T05:46:36;5.80;99.90
9776;DHT22;4927;52.472;13.108;2022-11-14T05:51:42;5.70;99.90
9776;DHT22;4927;52.472;13.108;2022-11-14T05:56:49;5.60;99.90
9776;DHT22;4927;52.472;13.108;2022-11-14T06:01:53;5.60;99.90
9776;DHT22;4927;52.472;13.108;2022-11-14T06:07:46;5.60;99.90
9776;DHT22;4927;52.472;13.108;2022-11-14T06:12:52;5.60;99.90
9776;DHT22;4927;52.472;13.108;2022-11-14T06:17:58;5.50;99.90
9776;DHT22;4927;52.472;13.108;2022-11-14T06:23:04;5.50;99.90
9776;DHT22;4927;52.472;13.108;2022-11-14T06:28:11;5.50;99.90
9776;DHT22;4927;52.472;13.108;2022-11-14T06:33:17;5.40;99.90
9776;DHT22;4927;52.472;13.108;2022-11-14T06:38:23;5.50;99.90
9776;DHT22;4927;52.472;13.108;2022-11-14T06:43:31;5.40;99.90
9776;DHT22;4927;52.472;13.108;2022-11-14T06:48:37;5.40;99.90
9776;DHT22;4927;52.472;13.108;2022-11-14T06:53:43;5.40;99.90
9776;DHT22;4927;52.472;13.108;2022-11-14T06:58:49;5.40;99.90
9776;DHT22;4927;52.472;13.108;2022-11-14T07:03:53;5.40;99.90
9776;DHT22;4927;52.472;13.108;2022-11-14T07:09:00;5.50;99.90
9776;DHT22;4927;52.472;13.108;2022-11-14T07:14:07;5.50;99.90
9776;DHT22;4927;52.472;13.108;2022-11-14T07:19:13;5.50;99.90
9776;DHT22;4927;52.472;13.108;2022-11-14T07:24:19;5.50;99.90
9776;DHT22;4927;52.472;13.108;2022-11-14T07:29:25;5.60;99.90
9776;DHT22;4927;52.472;13.108;2022-11-14T07:34:31;5.60;99.90
9776;DHT22;4927;52.472;13.108;2022-11-14T07:39:38;5.70;99.90
9776;DHT22;4927;52.472;13.108;2022-11-14T07:44:44;5.70;99.90
9776;DHT22;4927;52.472;13.108;2022-11-14T07:49:50;5.80;99.90
9776;DHT22;4927;52.472;13.108;2022-11-14T07:54:57;5.80;99.90
9776;DHT22;4927;52.472;13.108;2022-11-14T08:00:04;5.90;99.90
9776;DHT22;4927;52.472;13.108;2022-11-14T08:05:10;6.00;99.90
9776;DHT22;4927;52.472;13.108;2022-11-14T08:10:16;6.00;99.90
9776;DHT22;4927;52.472;13.108;2022-11-14T08:15:23;6.10;99.90
9776;DHT22;4927;52.472;13.108;2022-11-14T08:20:29;6.20;99.90
9776;DHT22;4927;52.472;13.108;2022-11-14T08:25:35;6.20;99.90
9776;DHT22;4927;52.472;13.108;2022-11-14T08:30:41;6.30;99.90
9776;DHT22;4927;52.472;13.108;2022-11-14T08:35:48;6.60;99.90
9776;DHT22;4927;52.472;13.108;2022-11-14T08:40:57;6.60;99.90
9776;DHT22;4927;52.472;13.108;2022-11-14T08:46:03;6.70;99.90
9776;DHT22;4927;52.472;13.108;2022-11-14T08:51:09;6.80;99.90
9776;DHT22;4927;52.472;13.108;2022-11-14T08:56:15;6.90;99.90
9776;DHT22;4927;52.472;13.108;2022-11-14T09:01:22;7.00;99.90
9776;DHT22;4927;52.472;13.108;2022-11-14T09:06:29;7.10;99.90
9776;DHT22;4927;52.472;13.108;2022-11-14T09:11:36;7.20;99.90
9776;DHT22;4927;52.472;13.108;2022-11-14T09:16:42;7.30;99.90
9776;DHT22;4927;52.472;13.108;2022-11-14T09:21:48;7.20;99.90
9776;DHT22;4927;52.472;13.108;2022-11-14T09:26:54;7.30;99.90
9776;DHT22;4927;52.472;13.108;2022-11-14T09:32:01;7.40;99.90
9776;DHT22;4927;52.472;13.108;2022-11-14T09:37:07;7.50;99.90
9776;DHT22;4927;52.472;13.108;2022-11-14T09:47:42;7.70;99.90
9776;DHT22;4927;52.472;13.108;2022-11-14T09:53:04;7.80;99.90
9776;DHT22;4927;52.472;13.108;2022-11-14T09:58:10;7.90;99.90
9776;DHT22;4927;52.472;13.108;2022-11-14T10:03:34;7.90;99.90
9776;DHT22;4927;52.472;13.108;2022-11-14T10:08:44;8.00;99.90
9776;DHT22;4927;52.472;13.108;2022-11-14T10:13:56;8.20;99.90
9776;DHT22;4927;52.472;13.108;2022-11-14T10:30:07;8.30;99.90
9776;DHT22;4927;52.472;13.108;2022-11-14T10:35:17;8.30;99.90
9776;DHT22;4927;52.472;13.108;2022-11-14T10:40:24;8.60;99.90
9776;DHT22;4927;52.472;13.108;2022-11-14T10:45:34;8.80;99.90
9776;DHT22;4927;52.472;13.108;2022-11-14T10:50:41;8.90;99.90
9776;DHT22;4927;52.472;13.108;2022-11-14T10:55:48;9.00;99.90
9776;DHT22;4927;52.472;13.108;2022-11-14T11:00:52;9.10;99.90
9776;DHT22;4927;52.472;13.108;2022-11-14T11:05:58;9.40;99.90
9776;DHT22;4927;52.472;13.108;2022-11-14T11:11:09;9.60;99.90
9776;DHT22;4927;52.472;13.108;2022-11-14T11:16:18;9.70;99.90
9776;DHT22;4927;52.472;13.108;2022-11-14T11:21:21;10.00;99.90
9776;DHT22;4927;52.472;13.108;2022-11-14T11:26:28;10.30;99.90
9776;DHT22;4927;52.472;13.108;2022-11-14T11:37:25;10.70;99.90
9776;DHT22;4927;52.472;13.108;2022-11-14T11:42:35;10.70;99.90
9776;DHT22;4927;52.472;13.108;2022-11-14T11:47:40;11.20;99.90
9776;DHT22;4927;52.472;13.108;2022-11-14T11:52:49;11.00;99.90
9776;DHT22;4927;52.472;13.108;2022-11-14T11:58:04;11.00;99.90
9776;DHT22;4927;52.472;13.108;2022-11-14T12:03:12;10.90;99.90
9776;DHT22;4927;52.472;13.108;2022-11-14T12:08:20;11.50;99.90
9776;DHT22;4927;52.472;13.108;2022-11-14T12:13:44;11.70;99.90
9776;DHT22;4927;52.472;13.108;2022-11-14T12:24:39;11.80;99.90
9776;DHT22;4927;52.472;13.108;2022-11-14T12:29:48;11.80;99.90
9776;DHT22;4927;52.472;13.108;2022-11-14T12:34:52;11.50;99.90
9776;DHT22;4927;52.472;13.108;2022-11-14T12:40:01;11.60;99.90
9776;DHT22;4927;52.472;13.108;2022-11-14T12:50:28;11.30;99.90
9776;DHT22;4927;52.472;13.108;2022-11-14T12:55:52;11.30;99.90
9776;DHT22;4927;52.472;13.108;2022-11-14T13:01:05;11.30;99.90
9776;DHT22;4927;52.472;13.108;2022-11-14T13:06:16;11.30;99.90
9776;DHT22;4927;52.472;13.108;2022-11-14T13:11:32;11.00;99.90
9776;DHT22;4927;52.472;13.108;2022-11-14T13:16:43;11.10;99.90
9776;DHT22;4927;52.472;13.108;2022-11-14T13:27:24;10.90;99.90
9776;DHT22;4927;52.472;13.108;2022-11-14T13:48:59;10.80;99.90
9776;DHT22;4927;52.472;13.108;2022-11-14T13:54:02;10.70;99.90
9776;DHT22;4927;52.472;13.108;2022-11-14T13:59:22;10.60;99.90
9776;DHT22;4927;52.472;13.108;2022-11-14T14:04:39;10.50;99.90
9776;DHT22;4927;52.472;13.108;2022-11-14T14:09:56;10.50;99.90
9776;DHT22;4927;52.472;13.108;2022-11-14T14:15:03;10.50;99.90
9776;DHT22;4927;52.472;13.108;2022-11-14T14:20:25;10.40;99.90
9776;DHT22;4927;52.472;13.108;2022-11-14T14:25:40;10.40;99.90
9776;DHT22;4927;52.472;13.108;2022-11-14T14:36:01;10.30;99.90
9776;DHT22;4927;52.472;13.108;2022-11-14T14:41:08;10.20;99.90
9776;DHT22;4927;52.472;13.108;2022-11-14T14:46:11;10.10;99.90
9776;DHT22;4927;52.472;13.108;2022-11-14T14:51:27;10.10;99.90
9776;DHT22;4927;52.472;13.108;2022-11-14T14:56:24;10.00;99.90
9776;DHT22;4927;52.472;13.108;2022-11-14T15:01:31;9.80;99.90
9776;DHT22;4927;52.472;13.108;2022-11-14T15:06:37;9.70;99.90
9776;DHT22;4927;52.472;13.108;2022-11-14T15:11:44;9.60;99.90
9776;DHT22;4927;52.472;13.108;2022-11-14T15:16:49;9.50;99.90
9776;DHT22;4927;52.472;13.108;2022-11-14T15:27:17;9.20;99.90
9776;DHT22;4927;52.472;13.108;2022-11-14T15:32:24;9.00;99.90
9776;DHT22;4927;52.472;13.108;2022-11-14T15:37:30;9.00;99.90
9776;DHT22;4927;52.472;13.108;2022-11-14T15:42:36;8.80;99.90
9776;DHT22;4927;52.472;13.108;2022-11-14T15:47:42;8.60;99.90
9776;DHT22;4927;52.472;13.108;2022-11-14T15:52:51;8.50;99.90
9776;DHT22;4927;52.472;13.108;2022-11-14T15:57:55;8.50;99.90
9776;DHT22;4927;52.472;13.108;2022-11-14T16:03:02;8.40;99.90
9776;DHT22;4927;52.472;13.108;2022-11-14T16:08:09;8.40;99.90
9776;DHT22;4927;52.472;13.108;2022-11-14T16:13:15;8.30;99.90
9776;DHT22;4927;52.472;13.108;2022-11-14T16:18:21;8.30;99.90
9776;DHT22;4927;52.472;13.108;2022-11-14T16:23:28;8.30;99.90
9776;DHT22;4927;52.472;13.108;2022-11-14T16:28:34;8.20;99.90
9776;DHT22;4927;52.472;13.108;2022-11-14T16:33:40;8.00;99.90
9776;DHT22;4927;52.472;13.108;2022-11-14T16:38:46;8.00;99.90
9776;DHT22;4927;52.472;13.108;2022-11-14T16:43:54;8.00;99.90
9776;DHT22;4927;52.472;13.108;2022-11-14T16:49:00;7.60;99.90
9776;DHT22;4927;52.472;13.108;2022-11-14T16:54:06;7.60;99.90
9776;DHT22;4927;52.472;13.108;2022-11-14T16:59:12;7.70;99.90
9776;DHT22;4927;52.472;13.108;2022-11-14T17:04:18;7.70;99.90
9776;DHT22;4927;52.472;13.108;2022-11-14T17:09:25;7.70;99.90
9776;DHT22;4927;52.472;13.108;2022-11-14T17:14:31;7.60;99.90
9776;DHT22;4927;52.472;13.108;2022-11-14T17:19:37;7.40;99.90
9776;DHT22;4927;52.472;13.108;2022-11-14T17:24:44;7.20;99.90
9776;DHT22;4927;52.472;13.108;2022-11-14T17:29:50;7.20;99.90
9776;DHT22;4927;52.472;13.108;2022-11-14T17:34:57;7.20;99.90
9776;DHT22;4927;52.472;13.108;2022-11-14T17:40:04;7.30;99.90
9776;DHT22;4927;52.472;13.108;2022-11-14T17:45:10;7.50;99.90
9776;DHT22;4927;52.472;13.108;2022-11-14T17:50:17;7.20;99.90
9776;DHT22;4927;52.472;13.108;2022-11-14T17:55:23;7.10;99.90
9776;DHT22;4927;52.472;13.108;2022-11-14T18:00:29;7.10;99.90
9776;DHT22;4927;52.472;13.108;2022-11-14T18:05:34;7.30;99.90
9776;DHT22;4927;52.472;13.108;2022-11-14T18:10:40;7.20;99.90
9776;DHT22;4927;52.472;13.108;2022-11-14T18:15:47;7.20;99.90
9776;DHT22;4927;52.472;13.108;2022-11-14T18:20:53;7.20;99.90
9776;DHT22;4927;52.472;13.108;2022-11-14T18:25:59;7.20;99.90
9776;DHT22;4927;52.472;13.108;2022-11-14T18:31:05;7.20;99.90
9776;DHT22;4927;52.472;13.108;2022-11-14T18:36:12;7.10;99.90
9776;DHT22;4927;52.472;13.108;2022-11-14T18:41:19;7.10;99.90
9776;DHT22;4927;52.472;13.108;2022-11-14T18:46:24;7.10;99.90
9776;DHT22;4927;52.472;13.108;2022-11-14T18:51:30;7.10;99.90
9776;DHT22;4927;52.472;13.108;2022-11-14T18:56:38;7.10;99.90
9776;DHT22;4927;52.472;13.108;2022-11-14T19:01:44;7.10;99.90
9776;DHT22;4927;52.472;13.108;2022-11-14T19:06:51;7.00;99.90
9776;DHT22;4927;52.472;13.108;2022-11-14T19:11:57;7.00;99.90
9776;DHT22;4927;52.472;13.108;2022-11-14T19:17:09;7.00;99.90
9776;DHT22;4927;52.472;13.108;2022-11-14T19:22:16;6.90;99.90
9776;DHT22;4927;52.472;13.108;2022-11-14T19:27:23;6.90;99.90
9776;DHT22;4927;52.472;13.108;2022-11-14T19:32:30;6.90;99.90
9776;DHT22;4927;52.472;13.108;2022-11-14T19:37:36;6.80;99.90
9776;DHT22;4927;52.472;13.108;2022-11-14T19:42:42;6.90;99.90
9776;DHT22;4927;52.472;13.108;2022-11-14T19:47:48;6.80;99.90
9776;DHT22;4927;52.472;13.108;2022-11-14T19:52:55;6.70;99.90
9776;DHT22;4927;52.472;13.108;2022-11-14T19:57:59;6.70;99.90
9776;DHT22;4927;52.472;13.108;2022-11-14T20:03:05;6.70;99.90
9776;DHT22;4927;52.472;13.108;2022-11-14T20:08:11;6.60;99.90
9776;DHT22;4927;52.472;13.108;2022-11-14T20:13:18;6.50;99.90
9776;DHT22;4927;52.472;13.108;2022-11-14T20:18:25;6.50;99.90
9776;DHT22;4927;52.472;13.108;2022-11-14T20:23:32;6.50;99.90
9776;DHT22;4927;52.472;13.108;2022-11-14T20:28:38;6.40;99.90
9776;DHT22;4927;52.472;13.108;2022-11-14T20:33:44;6.50;99.90
9776;DHT22;4927;52.472;13.108;2022-11-14T20:38:50;6.50;99.90
9776;DHT22;4927;52.472;13.108;2022-11-14T20:43:57;6.40;99.90
9776;DHT22;4927;52.472;13.108;2022-11-14T20:49:03;6.40;99.90
9776;DHT22;4927;52.472;13.108;2022-11-14T20:54:10;6.40;99.90
9776;DHT22;4927;52.472;13.108;2022-11-14T20:59:16;6.40;99.90
9776;DHT22;4927;52.472;13.108;2022-11-14T21:04:23;6.30;99.90
9776;DHT22;4927;52.472;13.108;2022-11-14T21:09:29;6.20;99.90
9776;DHT22;4927;52.472;13.108;2022-11-14T21:14:36;6.20;99.90
9776;DHT22;4927;52.472;13.108;2022-11-14T21:19:42;6.10;99.90
9776;DHT22;4927;52.472;13.108;2022-11-14T21:24:48;6.10;99.90
9776;DHT22;4927;52.472;13.108;2022-11-14T21:29:52;6.00;99.90
9776;DHT22;4927;52.472;13.108;2022-11-14T21:34:59;5.90;99.90
9776;DHT22;4927;52.472;13.108;2022-11-14T21:40:07;5.80;99.90
9776;DHT22;4927;52.472;13.108;2022-11-14T21:45:14;5.80;99.90
9776;DHT22;4927;52.472;13.108;2022-11-14T21:50:20;5.80;99.90
9776;DHT22;4927;52.472;13.108;2022-11-14T21:55:27;5.80;99.90
9776;DHT22;4927;52.472;13.108;2022-11-14T22:00:34;5.70;99.90
9776;DHT22;4927;52.472;13.108;2022-11-14T22:05:40;5.70;99.90
9776;DHT22;4927;52.472;13.108;2022-11-14T22:10:44;5.60;99.90
9776;DHT22;4927;52.472;13.108;2022-11-14T22:15:51;5.50;99.90
9776;DHT22;4927;52.472;13.108;2022-11-14T22:20:58;5.40;99.90
9776;DHT22;4927;52.472;13.108;2022-11-14T22:26:04;5.40;99.90
9776;DHT22;4927;52.472;13.108;2022-11-14T22:31:13;5.50;99.90
9776;DHT22;4927;52.472;13.108;2022-11-14T22:36:21;5.50;99.90
9776;DHT22;4927;52.472;13.108;2022-11-14T22:41:29;5.50;99.90
9776;DHT22;4927;52.472;13.108;2022-11-14T22:46:32;5.50;99.90
9776;DHT22;4927;52.472;13.108;2022-11-14T22:51:46;5.50;99.90
9776;DHT22;4927;52.472;13.108;2022-11-14T22:56:52;5.50;99.90
9776;DHT22;4927;52.472;13.108;2022-11-14T23:01:56;5.50;99.90
9776;DHT22;4927;52.472;13.108;2022-11-14T23:07:03;5.50;99.90
9776;DHT22;4927;52.472;13.108;2022-11-14T23:12:09;5.40;99.90
9776;DHT22;4927;52.472;13.108;2022-11-14T23:17:15;5.30;99.90
9776;DHT22;4927;52.472;13.108;2022-11-14T23:22:21;5.30;99.90
9776;DHT22;4927;52.472;13.108;2022-11-14T23:27:28;5.30;99.90
9776;DHT22;4927;52.472;13.108;2022-11-14T23:32:34;5.30;99.90
9776;DHT22;4927;52.472;13.108;2022-11-14T23:37:40;5.30;99.90
9776;DHT22;4927;52.472;13.108;2022-11-14T23:42:46;5.30;99.90
9776;DHT22;4927;52.472;13.108;2022-11-14T23:47:52;5.30;99.90
9776;DHT22;4927;52.472;13.108;2022-11-14T23:52:59;5.30;99.90
9776;DHT22;4927;52.472;13.108;2022-11-14T23:58:05;5.20;99.90
